sensor_id;sensor_type;location;lat;lon;timestamp;P1;durP1;ratioP1;P2;durP2;ratioP2
38779;SDS011;29273;49.962;9.768;2023-07-09T00:00:44;3.92;;;2.60;;
38779;SDS011;29273;49.962;9.768;2023-07-09T00:03:12;3.63;;;2.45;;
38779;SDS011;29273;49.962;9.768;2023-07-09T00:05:37;3.15;;;2.50;;
38779;SDS011;29273;49.962;9.768;2023-07-09T00:08:03;3.65;;;2.70;;
38779;SDS011;29273;49.962;9.768;2023-07-09T00:10:29;3.30;;;2.47;;
38779;SDS011;29273;49.962;9.768;2023-07-09T00:12:54;2.67;;;2.33;;
38779;SDS011;29273;49.962;9.768;2023-07-09T00:15:20;5.18;;;2.85;;
38779;SDS011;29273;49.962;9.768;2023-07-09T00:17:46;4.13;;;2.80;;
38779;SDS011;29273;49.962;9.768;2023-07-09T00:20:13;4.40;;;2.80;;
38779;SDS011;29273;49.962;9.768;2023-07-09T00:22:42;3.85;;;3.10;;
38779;SDS011;29273;49.962;9.768;2023-07-09T00:25:13;3.95;;;2.92;;
38779;SDS011;29273;49.962;9.768;2023-07-09T00:27:41;3.55;;;3.08;;
38779;SDS011;29273;49.962;9.768;2023-07-09T00:30:13;4.07;;;3.20;;
38779;SDS011;29273;49.962;9.768;2023-07-09T00:32:41;3.67;;;3.10;;
38779;SDS011;29273;49.962;9.768;2023-07-09T00:35:11;4.50;;;3.20;;
38779;SDS011;29273;49.962;9.768;2023-07-09T00:37:40;3.50;;;3.13;;
38779;SDS011;29273;49.962;9.768;2023-07-09T00:40:13;4.00;;;3.40;;
38779;SDS011;29273;49.962;9.768;2023-07-09T00:42:45;4.03;;;3.03;;
38779;SDS011;29273;49.962;9.768;2023-07-09T00:45:16;4.20;;;2.90;;
38779;SDS011;29273;49.962;9.768;2023-07-09T00:47:51;5.10;;;3.40;;
38779;SDS011;29273;49.962;9.768;2023-07-09T00:50:21;4.07;;;2.72;;
38779;SDS011;29273;49.962;9.768;2023-07-09T00:53:19;3.40;;;3.03;;
38779;SDS011;29273;49.962;9.768;2023-07-09T00:55:50;3.35;;;2.90;;
38779;SDS011;29273;49.962;9.768;2023-07-09T00:58:30;3.30;;;2.58;;
38779;SDS011;29273;49.962;9.768;2023-07-09T01:01:01;4.53;;;3.08;;
38779;SDS011;29273;49.962;9.768;2023-07-09T01:03:32;3.55;;;2.92;;
38779;SDS011;29273;49.962;9.768;2023-07-09T01:06:07;3.55;;;2.78;;
38779;SDS011;29273;49.962;9.768;2023-07-09T01:08:35;4.40;;;3.10;;
38779;SDS011;29273;49.962;9.768;2023-07-09T01:11:03;3.65;;;2.95;;
38779;SDS011;29273;49.962;9.768;2023-07-09T01:13:29;4.05;;;3.00;;
38779;SDS011;29273;49.962;9.768;2023-07-09T01:15:57;4.28;;;2.97;;
38779;SDS011;29273;49.962;9.768;2023-07-09T01:18:23;3.47;;;2.70;;
38779;SDS011;29273;49.962;9.768;2023-07-09T01:20:50;3.22;;;2.78;;
38779;SDS011;29273;49.962;9.768;2023-07-09T01:23:18;4.25;;;3.28;;
38779;SDS011;29273;49.962;9.768;2023-07-09T01:25:45;2.90;;;2.60;;
38779;SDS011;29273;49.962;9.768;2023-07-09T01:28:18;4.13;;;3.00;;
38779;SDS011;29273;49.962;9.768;2023-07-09T01:30:46;2.90;;;2.53;;
38779;SDS011;29273;49.962;9.768;2023-07-09T01:33:20;3.58;;;2.78;;
38779;SDS011;29273;49.962;9.768;2023-07-09T01:35:48;3.40;;;2.70;;
38779;SDS011;29273;49.962;9.768;2023-07-09T01:38:13;3.85;;;2.60;;
38779;SDS011;29273;49.962;9.768;2023-07-09T01:40:40;3.80;;;2.60;;
38779;SDS011;29273;49.962;9.768;2023-07-09T01:43:05;3.88;;;3.00;;
38779;SDS011;29273;49.962;9.768;2023-07-09T01:45:32;3.88;;;3.08;;
38779;SDS011;29273;49.962;9.768;2023-07-09T01:47:58;3.75;;;2.65;;
38779;SDS011;29273;49.962;9.768;2023-07-09T01:50:24;3.40;;;2.65;;
38779;SDS011;29273;49.962;9.768;2023-07-09T01:52:51;3.97;;;2.80;;
38779;SDS011;29273;49.962;9.768;2023-07-09T01:55:18;2.80;;;2.45;;
38779;SDS011;29273;49.962;9.768;2023-07-09T01:57:44;4.40;;;2.78;;
38779;SDS011;29273;49.962;9.768;2023-07-09T02:00:11;3.15;;;2.53;;
38779;SDS011;29273;49.962;9.768;2023-07-09T02:02:40;5.22;;;3.10;;
38779;SDS011;29273;49.962;9.768;2023-07-09T02:05:10;2.97;;;2.53;;
38779;SDS011;29273;49.962;9.768;2023-07-09T02:07:38;3.50;;;2.75;;
38779;SDS011;29273;49.962;9.768;2023-07-09T02:10:04;3.28;;;2.80;;
38779;SDS011;29273;49.962;9.768;2023-07-09T02:12:31;3.42;;;2.72;;
38779;SDS011;29273;49.962;9.768;2023-07-09T02:14:56;4.13;;;2.85;;
38779;SDS011;29273;49.962;9.768;2023-07-09T02:17:23;5.18;;;2.85;;
38779;SDS011;29273;49.962;9.768;2023-07-09T02:19:49;4.03;;;2.90;;
38779;SDS011;29273;49.962;9.768;2023-07-09T02:22:15;3.88;;;2.83;;
38779;SDS011;29273;49.962;9.768;2023-07-09T02:24:40;4.63;;;3.25;;
38779;SDS011;29273;49.962;9.768;2023-07-09T02:27:06;3.65;;;2.78;;
38779;SDS011;29273;49.962;9.768;2023-07-09T02:29:33;2.90;;;2.40;;
38779;SDS011;29273;49.962;9.768;2023-07-09T02:31:59;3.55;;;2.70;;
38779;SDS011;29273;49.962;9.768;2023-07-09T02:34:26;3.13;;;2.50;;
38779;SDS011;29273;49.962;9.768;2023-07-09T02:36:53;3.20;;;2.50;;
38779;SDS011;29273;49.962;9.768;2023-07-09T02:39:20;4.20;;;2.80;;
38779;SDS011;29273;49.962;9.768;2023-07-09T02:41:47;3.22;;;2.80;;
38779;SDS011;29273;49.962;9.768;2023-07-09T02:44:13;4.00;;;2.83;;
38779;SDS011;29273;49.962;9.768;2023-07-09T02:46:38;2.80;;;2.50;;
38779;SDS011;29273;49.962;9.768;2023-07-09T02:49:04;3.80;;;2.80;;
38779;SDS011;29273;49.962;9.768;2023-07-09T02:51:32;4.00;;;3.00;;
38779;SDS011;29273;49.962;9.768;2023-07-09T02:53:59;3.60;;;2.70;;
38779;SDS011;29273;49.962;9.768;2023-07-09T02:56:27;5.18;;;2.53;;
38779;SDS011;29273;49.962;9.768;2023-07-09T02:58:53;3.15;;;2.70;;
38779;SDS011;29273;49.962;9.768;2023-07-09T03:01:19;4.07;;;2.67;;
38779;SDS011;29273;49.962;9.768;2023-07-09T03:03:51;3.13;;;2.78;;
38779;SDS011;29273;49.962;9.768;2023-07-09T03:06:18;4.25;;;2.83;;
38779;SDS011;29273;49.962;9.768;2023-07-09T03:08:44;2.97;;;2.58;;
38779;SDS011;29273;49.962;9.768;2023-07-09T03:11:10;2.97;;;2.53;;
38779;SDS011;29273;49.962;9.768;2023-07-09T03:13:37;5.22;;;2.80;;
38779;SDS011;29273;49.962;9.768;2023-07-09T03:16:04;3.63;;;2.92;;
38779;SDS011;29273;49.962;9.768;2023-07-09T03:18:29;3.55;;;2.60;;
38779;SDS011;29273;49.962;9.768;2023-07-09T03:20:55;3.28;;;2.80;;
38779;SDS011;29273;49.962;9.768;2023-07-09T03:23:21;3.33;;;2.78;;
38779;SDS011;29273;49.962;9.768;2023-07-09T03:25:46;4.07;;;2.85;;
38779;SDS011;29273;49.962;9.768;2023-07-09T03:28:12;3.35;;;2.80;;
38779;SDS011;29273;49.962;9.768;2023-07-09T03:30:41;4.15;;;2.70;;
38779;SDS011;29273;49.962;9.768;2023-07-09T03:33:08;3.90;;;2.80;;
38779;SDS011;29273;49.962;9.768;2023-07-09T03:35:35;3.80;;;2.70;;
38779;SDS011;29273;49.962;9.768;2023-07-09T03:38:01;4.10;;;3.00;;
38779;SDS011;29273;49.962;9.768;2023-07-09T03:40:27;3.58;;;2.65;;
38779;SDS011;29273;49.962;9.768;2023-07-09T03:42:53;4.03;;;3.05;;
38779;SDS011;29273;49.962;9.768;2023-07-09T03:45:18;4.38;;;2.90;;
38779;SDS011;29273;49.962;9.768;2023-07-09T03:47:44;3.42;;;2.60;;
38779;SDS011;29273;49.962;9.768;2023-07-09T03:50:09;3.38;;;2.60;;
38779;SDS011;29273;49.962;9.768;2023-07-09T03:52:35;3.72;;;2.65;;
38779;SDS011;29273;49.962;9.768;2023-07-09T03:55:01;3.78;;;2.88;;
38779;SDS011;29273;49.962;9.768;2023-07-09T03:57:29;3.58;;;2.70;;
38779;SDS011;29273;49.962;9.768;2023-07-09T03:59:55;4.53;;;2.95;;
38779;SDS011;29273;49.962;9.768;2023-07-09T04:02:21;3.42;;;2.92;;
38779;SDS011;29273;49.962;9.768;2023-07-09T04:04:47;4.43;;;2.97;;
38779;SDS011;29273;49.962;9.768;2023-07-09T04:07:12;3.72;;;2.65;;
38779;SDS011;29273;49.962;9.768;2023-07-09T04:09:38;3.22;;;2.67;;
38779;SDS011;29273;49.962;9.768;2023-07-09T04:12:03;3.25;;;2.63;;
38779;SDS011;29273;49.962;9.768;2023-07-09T04:14:29;3.63;;;2.78;;
38779;SDS011;29273;49.962;9.768;2023-07-09T04:16:55;3.50;;;2.78;;
38779;SDS011;29273;49.962;9.768;2023-07-09T04:19:20;3.65;;;2.80;;
38779;SDS011;29273;49.962;9.768;2023-07-09T04:21:46;2.95;;;2.45;;
38779;SDS011;29273;49.962;9.768;2023-07-09T04:24:11;3.42;;;2.92;;
38779;SDS011;29273;49.962;9.768;2023-07-09T04:26:37;3.60;;;2.40;;
38779;SDS011;29273;49.962;9.768;2023-07-09T04:29:04;3.70;;;2.80;;
38779;SDS011;29273;49.962;9.768;2023-07-09T04:31:31;4.03;;;2.72;;
38779;SDS011;29273;49.962;9.768;2023-07-09T04:33:56;4.15;;;3.00;;
38779;SDS011;29273;49.962;9.768;2023-07-09T04:36:22;3.40;;;3.05;;
38779;SDS011;29273;49.962;9.768;2023-07-09T04:38:47;4.13;;;3.08;;
38779;SDS011;29273;49.962;9.768;2023-07-09T04:41:13;4.20;;;3.00;;
38779;SDS011;29273;49.962;9.768;2023-07-09T04:43:38;4.35;;;3.10;;
38779;SDS011;29273;49.962;9.768;2023-07-09T04:46:04;3.67;;;2.88;;
38779;SDS011;29273;49.962;9.768;2023-07-09T04:48:29;3.80;;;2.63;;
38779;SDS011;29273;49.962;9.768;2023-07-09T04:50:55;4.15;;;3.10;;
38779;SDS011;29273;49.962;9.768;2023-07-09T04:53:20;3.65;;;2.70;;
38779;SDS011;29273;49.962;9.768;2023-07-09T04:55:46;4.38;;;3.10;;
38779;SDS011;29273;49.962;9.768;2023-07-09T04:58:11;4.13;;;2.70;;
38779;SDS011;29273;49.962;9.768;2023-07-09T05:00:36;3.28;;;2.70;;
38779;SDS011;29273;49.962;9.768;2023-07-09T05:03:02;3.75;;;2.85;;
38779;SDS011;29273;49.962;9.768;2023-07-09T05:05:27;3.83;;;3.00;;
38779;SDS011;29273;49.962;9.768;2023-07-09T05:07:53;4.93;;;2.60;;
38779;SDS011;29273;49.962;9.768;2023-07-09T05:10:18;3.88;;;2.80;;
38779;SDS011;29273;49.962;9.768;2023-07-09T05:12:48;4.03;;;3.10;;
38779;SDS011;29273;49.962;9.768;2023-07-09T05:15:15;3.63;;;2.50;;
38779;SDS011;29273;49.962;9.768;2023-07-09T05:17:41;3.97;;;2.83;;
38779;SDS011;29273;49.962;9.768;2023-07-09T05:20:07;3.17;;;2.75;;
38779;SDS011;29273;49.962;9.768;2023-07-09T05:22:33;3.60;;;3.00;;
38779;SDS011;29273;49.962;9.768;2023-07-09T05:24:58;4.00;;;3.20;;
38779;SDS011;29273;49.962;9.768;2023-07-09T05:27:24;4.97;;;2.80;;
38779;SDS011;29273;49.962;9.768;2023-07-09T05:29:49;4.25;;;3.00;;
38779;SDS011;29273;49.962;9.768;2023-07-09T05:32:15;3.63;;;3.10;;
38779;SDS011;29273;49.962;9.768;2023-07-09T05:34:40;2.95;;;2.65;;
38779;SDS011;29273;49.962;9.768;2023-07-09T05:37:06;3.30;;;2.80;;
38779;SDS011;29273;49.962;9.768;2023-07-09T05:39:31;4.35;;;3.17;;
38779;SDS011;29273;49.962;9.768;2023-07-09T05:41:57;3.30;;;2.55;;
38779;SDS011;29273;49.962;9.768;2023-07-09T05:44:22;4.25;;;2.92;;
38779;SDS011;29273;49.962;9.768;2023-07-09T05:46:47;3.72;;;3.03;;
38779;SDS011;29273;49.962;9.768;2023-07-09T05:49:13;3.10;;;2.75;;
38779;SDS011;29273;49.962;9.768;2023-07-09T05:51:38;3.22;;;2.70;;
38779;SDS011;29273;49.962;9.768;2023-07-09T05:54:04;3.17;;;2.78;;
38779;SDS011;29273;49.962;9.768;2023-07-09T05:56:29;3.72;;;2.80;;
38779;SDS011;29273;49.962;9.768;2023-07-09T05:58:55;4.38;;;3.42;;
38779;SDS011;29273;49.962;9.768;2023-07-09T06:01:21;3.03;;;2.67;;
38779;SDS011;29273;49.962;9.768;2023-07-09T06:03:47;3.20;;;2.90;;
38779;SDS011;29273;49.962;9.768;2023-07-09T06:06:14;3.13;;;2.65;;
38779;SDS011;29273;49.962;9.768;2023-07-09T06:08:40;3.65;;;2.88;;
38779;SDS011;29273;49.962;9.768;2023-07-09T06:11:05;3.65;;;2.80;;
38779;SDS011;29273;49.962;9.768;2023-07-09T06:13:32;3.10;;;2.58;;
38779;SDS011;29273;49.962;9.768;2023-07-09T06:15:58;3.80;;;3.03;;
38779;SDS011;29273;49.962;9.768;2023-07-09T06:18:24;3.72;;;3.00;;
38779;SDS011;29273;49.962;9.768;2023-07-09T06:20:55;3.42;;;2.88;;
38779;SDS011;29273;49.962;9.768;2023-07-09T06:23:22;5.78;;;3.00;;
38779;SDS011;29273;49.962;9.768;2023-07-09T06:25:48;3.70;;;3.08;;
38779;SDS011;29273;49.962;9.768;2023-07-09T06:28:14;4.25;;;3.05;;
38779;SDS011;29273;49.962;9.768;2023-07-09T06:30:40;3.60;;;2.70;;
38779;SDS011;29273;49.962;9.768;2023-07-09T06:33:06;3.30;;;3.00;;
38779;SDS011;29273;49.962;9.768;2023-07-09T06:35:31;3.95;;;3.20;;
38779;SDS011;29273;49.962;9.768;2023-07-09T06:37:57;3.42;;;3.00;;
38779;SDS011;29273;49.962;9.768;2023-07-09T06:40:23;3.58;;;3.10;;
38779;SDS011;29273;49.962;9.768;2023-07-09T06:42:50;3.50;;;2.92;;
38779;SDS011;29273;49.962;9.768;2023-07-09T06:45:24;3.25;;;2.83;;
38779;SDS011;29273;49.962;9.768;2023-07-09T06:47:49;3.40;;;3.10;;
38779;SDS011;29273;49.962;9.768;2023-07-09T06:50:15;3.72;;;3.10;;
38779;SDS011;29273;49.962;9.768;2023-07-09T06:52:41;3.53;;;2.80;;
38779;SDS011;29273;49.962;9.768;2023-07-09T06:55:07;3.08;;;2.75;;
38779;SDS011;29273;49.962;9.768;2023-07-09T06:57:33;3.45;;;3.10;;
38779;SDS011;29273;49.962;9.768;2023-07-09T06:59:58;3.83;;;2.97;;
38779;SDS011;29273;49.962;9.768;2023-07-09T07:02:24;4.55;;;3.35;;
38779;SDS011;29273;49.962;9.768;2023-07-09T07:04:49;3.58;;;3.15;;
38779;SDS011;29273;49.962;9.768;2023-07-09T07:07:15;4.07;;;3.45;;
38779;SDS011;29273;49.962;9.768;2023-07-09T07:09:40;3.67;;;3.00;;
38779;SDS011;29273;49.962;9.768;2023-07-09T07:12:06;3.70;;;3.10;;
38779;SDS011;29273;49.962;9.768;2023-07-09T07:14:32;3.40;;;2.67;;
38779;SDS011;29273;49.962;9.768;2023-07-09T07:16:57;4.07;;;3.47;;
38779;SDS011;29273;49.962;9.768;2023-07-09T07:19:23;3.28;;;2.83;;
38779;SDS011;29273;49.962;9.768;2023-07-09T07:21:49;3.13;;;2.78;;
38779;SDS011;29273;49.962;9.768;2023-07-09T07:24:14;3.17;;;2.83;;
38779;SDS011;29273;49.962;9.768;2023-07-09T07:26:40;2.90;;;2.65;;
38779;SDS011;29273;49.962;9.768;2023-07-09T07:29:05;3.20;;;2.90;;
38779;SDS011;29273;49.962;9.768;2023-07-09T07:31:31;3.40;;;2.80;;
38779;SDS011;29273;49.962;9.768;2023-07-09T07:33:56;3.35;;;2.83;;
38779;SDS011;29273;49.962;9.768;2023-07-09T07:36:22;3.60;;;3.17;;
38779;SDS011;29273;49.962;9.768;2023-07-09T07:38:47;3.92;;;2.78;;
38779;SDS011;29273;49.962;9.768;2023-07-09T07:41:13;3.08;;;2.72;;
38779;SDS011;29273;49.962;9.768;2023-07-09T07:43:38;4.95;;;3.20;;
38779;SDS011;29273;49.962;9.768;2023-07-09T07:46:04;3.40;;;3.10;;
38779;SDS011;29273;49.962;9.768;2023-07-09T07:48:29;3.28;;;2.97;;
38779;SDS011;29273;49.962;9.768;2023-07-09T07:50:58;3.70;;;3.00;;
38779;SDS011;29273;49.962;9.768;2023-07-09T07:53:26;3.00;;;2.70;;
38779;SDS011;29273;49.962;9.768;2023-07-09T07:55:54;3.05;;;2.65;;
38779;SDS011;29273;49.962;9.768;2023-07-09T07:58:21;3.13;;;2.63;;
38779;SDS011;29273;49.962;9.768;2023-07-09T08:00:47;3.60;;;2.97;;
38779;SDS011;29273;49.962;9.768;2023-07-09T08:03:12;4.18;;;2.80;;
38779;SDS011;29273;49.962;9.768;2023-07-09T08:05:38;3.65;;;3.00;;
38779;SDS011;29273;49.962;9.768;2023-07-09T08:08:03;3.60;;;2.80;;
38779;SDS011;29273;49.962;9.768;2023-07-09T08:10:29;4.70;;;3.08;;
38779;SDS011;29273;49.962;9.768;2023-07-09T08:12:55;4.28;;;3.53;;
38779;SDS011;29273;49.962;9.768;2023-07-09T08:15:25;3.85;;;3.03;;
38779;SDS011;29273;49.962;9.768;2023-07-09T08:17:50;3.45;;;2.83;;
38779;SDS011;29273;49.962;9.768;2023-07-09T08:20:16;3.85;;;2.90;;
38779;SDS011;29273;49.962;9.768;2023-07-09T08:22:42;3.78;;;3.13;;
38779;SDS011;29273;49.962;9.768;2023-07-09T08:25:08;4.35;;;2.83;;
38779;SDS011;29273;49.962;9.768;2023-07-09T08:27:33;3.47;;;3.17;;
38779;SDS011;29273;49.962;9.768;2023-07-09T08:29:59;3.33;;;2.95;;
38779;SDS011;29273;49.962;9.768;2023-07-09T08:32:24;4.20;;;3.20;;
38779;SDS011;29273;49.962;9.768;2023-07-09T08:34:50;4.60;;;3.08;;
38779;SDS011;29273;49.962;9.768;2023-07-09T08:37:15;3.17;;;2.70;;
38779;SDS011;29273;49.962;9.768;2023-07-09T08:39:41;3.78;;;2.70;;
38779;SDS011;29273;49.962;9.768;2023-07-09T08:42:10;3.10;;;2.75;;
38779;SDS011;29273;49.962;9.768;2023-07-09T08:47:36;3.72;;;2.60;;
38779;SDS011;29273;49.962;9.768;2023-07-09T08:50:18;3.03;;;2.60;;
38779;SDS011;29273;49.962;9.768;2023-07-09T08:52:48;3.20;;;2.83;;
38779;SDS011;29273;49.962;9.768;2023-07-09T08:55:16;3.70;;;3.10;;
38779;SDS011;29273;49.962;9.768;2023-07-09T08:57:44;3.15;;;2.85;;
38779;SDS011;29273;49.962;9.768;2023-07-09T09:00:22;3.50;;;2.95;;
38779;SDS011;29273;49.962;9.768;2023-07-09T09:02:58;3.13;;;2.80;;
38779;SDS011;29273;49.962;9.768;2023-07-09T09:05:28;3.20;;;2.90;;
38779;SDS011;29273;49.962;9.768;2023-07-09T09:07:59;3.42;;;2.80;;
38779;SDS011;29273;49.962;9.768;2023-07-09T09:10:42;4.43;;;3.40;;
38779;SDS011;29273;49.962;9.768;2023-07-09T09:13:12;3.72;;;2.92;;
38779;SDS011;29273;49.962;9.768;2023-07-09T09:15:45;3.40;;;3.00;;
38779;SDS011;29273;49.962;9.768;2023-07-09T09:18:16;3.20;;;2.90;;
38779;SDS011;29273;49.962;9.768;2023-07-09T09:20:53;3.45;;;3.15;;
38779;SDS011;29273;49.962;9.768;2023-07-09T09:23:22;3.85;;;3.00;;
38779;SDS011;29273;49.962;9.768;2023-07-09T09:25:53;3.30;;;2.70;;
38779;SDS011;29273;49.962;9.768;2023-07-09T09:28:22;3.45;;;3.05;;
38779;SDS011;29273;49.962;9.768;2023-07-09T09:30:50;3.42;;;2.92;;
38779;SDS011;29273;49.962;9.768;2023-07-09T09:33:16;2.60;;;2.40;;
38779;SDS011;29273;49.962;9.768;2023-07-09T09:35:43;4.15;;;2.90;;
38779;SDS011;29273;49.962;9.768;2023-07-09T09:38:10;3.03;;;2.58;;
38779;SDS011;29273;49.962;9.768;2023-07-09T09:40:37;2.95;;;2.65;;
38779;SDS011;29273;49.962;9.768;2023-07-09T09:43:09;3.50;;;3.08;;
38779;SDS011;29273;49.962;9.768;2023-07-09T09:45:39;3.22;;;2.70;;
38779;SDS011;29273;49.962;9.768;2023-07-09T09:48:10;2.97;;;2.67;;
38779;SDS011;29273;49.962;9.768;2023-07-09T09:50:40;3.65;;;2.58;;
38779;SDS011;29273;49.962;9.768;2023-07-09T09:53:07;4.15;;;2.90;;
38779;SDS011;29273;49.962;9.768;2023-07-09T09:55:33;2.58;;;2.38;;
38779;SDS011;29273;49.962;9.768;2023-07-09T09:57:59;3.55;;;2.47;;
38779;SDS011;29273;49.962;9.768;2023-07-09T10:00:28;2.10;;;1.90;;
38779;SDS011;29273;49.962;9.768;2023-07-09T10:02:59;2.38;;;2.17;;
38779;SDS011;29273;49.962;9.768;2023-07-09T10:05:31;2.90;;;2.33;;
38779;SDS011;29273;49.962;9.768;2023-07-09T10:08:08;2.20;;;2.00;;
38779;SDS011;29273;49.962;9.768;2023-07-09T10:10:38;3.33;;;2.10;;
38779;SDS011;29273;49.962;9.768;2023-07-09T10:13:15;2.10;;;1.70;;
38779;SDS011;29273;49.962;9.768;2023-07-09T10:16:08;1.98;;;1.80;;
38779;SDS011;29273;49.962;9.768;2023-07-09T10:21:58;2.00;;;1.80;;
38779;SDS011;29273;49.962;9.768;2023-07-09T10:27:22;2.20;;;2.00;;
38779;SDS011;29273;49.962;9.768;2023-07-09T10:30:11;2.97;;;2.17;;
38779;SDS011;29273;49.962;9.768;2023-07-09T10:32:55;2.33;;;1.98;;
38779;SDS011;29273;49.962;9.768;2023-07-09T10:35:36;2.40;;;2.20;;
38779;SDS011;29273;49.962;9.768;2023-07-09T10:38:20;2.03;;;1.83;;
38779;SDS011;29273;49.962;9.768;2023-07-09T10:40:54;2.28;;;1.90;;
38779;SDS011;29273;49.962;9.768;2023-07-09T10:43:28;2.60;;;2.08;;
38779;SDS011;29273;49.962;9.768;2023-07-09T10:45:57;4.22;;;2.40;;
38779;SDS011;29273;49.962;9.768;2023-07-09T10:50:56;2.47;;;2.28;;
38779;SDS011;29273;49.962;9.768;2023-07-09T10:53:33;2.72;;;2.03;;
38779;SDS011;29273;49.962;9.768;2023-07-09T10:56:17;2.33;;;2.13;;
38779;SDS011;29273;49.962;9.768;2023-07-09T11:01:31;2.47;;;2.00;;
38779;SDS011;29273;49.962;9.768;2023-07-09T11:04:02;2.13;;;1.85;;
38779;SDS011;29273;49.962;9.768;2023-07-09T11:06:38;2.50;;;2.00;;
38779;SDS011;29273;49.962;9.768;2023-07-09T11:09:22;3.57;;;2.03;;
38779;SDS011;29273;49.962;9.768;2023-07-09T11:11:52;2.65;;;1.63;;
38779;SDS011;29273;49.962;9.768;2023-07-09T11:14:34;2.25;;;1.83;;
38779;SDS011;29273;49.962;9.768;2023-07-09T11:17:07;2.47;;;1.98;;
38779;SDS011;29273;49.962;9.768;2023-07-09T11:19:43;2.58;;;1.70;;
38779;SDS011;29273;49.962;9.768;2023-07-09T11:22:20;2.20;;;1.90;;
38779;SDS011;29273;49.962;9.768;2023-07-09T11:24:49;2.60;;;1.92;;
38779;SDS011;29273;49.962;9.768;2023-07-09T11:27:29;2.30;;;1.60;;
38779;SDS011;29273;49.962;9.768;2023-07-09T11:29:59;2.38;;;1.73;;
38779;SDS011;29273;49.962;9.768;2023-07-09T11:32:47;1.70;;;1.60;;
38779;SDS011;29273;49.962;9.768;2023-07-09T11:35:20;2.83;;;2.10;;
38779;SDS011;29273;49.962;9.768;2023-07-09T11:37:48;2.28;;;1.90;;
38779;SDS011;29273;49.962;9.768;2023-07-09T11:40:14;2.22;;;1.77;;
38779;SDS011;29273;49.962;9.768;2023-07-09T11:42:56;2.60;;;2.10;;
38779;SDS011;29273;49.962;9.768;2023-07-09T11:45:31;2.35;;;1.83;;
38779;SDS011;29273;49.962;9.768;2023-07-09T11:48:04;2.00;;;1.80;;
38779;SDS011;29273;49.962;9.768;2023-07-09T11:50:50;2.58;;;1.90;;
38779;SDS011;29273;49.962;9.768;2023-07-09T11:56:08;2.10;;;1.75;;
38779;SDS011;29273;49.962;9.768;2023-07-09T11:58:34;1.83;;;1.60;;
38779;SDS011;29273;49.962;9.768;2023-07-09T12:01:00;3.63;;;2.33;;
38779;SDS011;29273;49.962;9.768;2023-07-09T12:03:30;2.47;;;1.95;;
38779;SDS011;29273;49.962;9.768;2023-07-09T12:06:02;3.17;;;2.35;;
38779;SDS011;29273;49.962;9.768;2023-07-09T12:10:59;3.03;;;2.03;;
38779;SDS011;29273;49.962;9.768;2023-07-09T12:13:25;3.97;;;2.00;;
38779;SDS011;29273;49.962;9.768;2023-07-09T12:15:50;3.50;;;1.95;;
38779;SDS011;29273;49.962;9.768;2023-07-09T12:18:16;2.75;;;1.83;;
38779;SDS011;29273;49.962;9.768;2023-07-09T12:20:45;1.80;;;1.70;;
38779;SDS011;29273;49.962;9.768;2023-07-09T12:23:18;1.67;;;1.58;;
38779;SDS011;29273;49.962;9.768;2023-07-09T12:25:48;2.80;;;1.90;;
38779;SDS011;29273;49.962;9.768;2023-07-09T12:28:15;2.75;;;2.22;;
38779;SDS011;29273;49.962;9.768;2023-07-09T12:30:45;2.67;;;1.98;;
38779;SDS011;29273;49.962;9.768;2023-07-09T12:33:16;4.55;;;2.40;;
38779;SDS011;29273;49.962;9.768;2023-07-09T12:35:43;1.73;;;1.63;;
38779;SDS011;29273;49.962;9.768;2023-07-09T12:38:15;2.92;;;2.00;;
38779;SDS011;29273;49.962;9.768;2023-07-09T12:40:44;2.88;;;1.90;;
38779;SDS011;29273;49.962;9.768;2023-07-09T12:43:10;5.35;;;2.20;;
38779;SDS011;29273;49.962;9.768;2023-07-09T12:45:36;2.20;;;1.70;;
38779;SDS011;29273;49.962;9.768;2023-07-09T12:48:02;2.05;;;1.70;;
38779;SDS011;29273;49.962;9.768;2023-07-09T12:50:33;2.88;;;2.30;;
38779;SDS011;29273;49.962;9.768;2023-07-09T12:53:19;2.72;;;2.30;;
38779;SDS011;29273;49.962;9.768;2023-07-09T12:55:47;1.77;;;1.67;;
38779;SDS011;29273;49.962;9.768;2023-07-09T12:58:28;2.53;;;1.60;;
38779;SDS011;29273;49.962;9.768;2023-07-09T13:00:56;1.95;;;1.75;;
38779;SDS011;29273;49.962;9.768;2023-07-09T13:03:28;2.28;;;2.00;;
38779;SDS011;29273;49.962;9.768;2023-07-09T13:08:30;2.13;;;1.90;;
38779;SDS011;29273;49.962;9.768;2023-07-09T13:10:57;2.00;;;1.63;;
38779;SDS011;29273;49.962;9.768;2023-07-09T13:13:25;3.03;;;1.60;;
38779;SDS011;29273;49.962;9.768;2023-07-09T13:16:01;1.80;;;1.58;;
38779;SDS011;29273;49.962;9.768;2023-07-09T13:18:27;2.95;;;1.80;;
38779;SDS011;29273;49.962;9.768;2023-07-09T13:20:54;4.00;;;1.90;;
38779;SDS011;29273;49.962;9.768;2023-07-09T13:23:27;2.47;;;2.13;;
38779;SDS011;29273;49.962;9.768;2023-07-09T13:25:55;1.90;;;1.75;;
38779;SDS011;29273;49.962;9.768;2023-07-09T13:28:24;2.35;;;2.05;;
38779;SDS011;29273;49.962;9.768;2023-07-09T13:30:52;2.15;;;1.95;;
38779;SDS011;29273;49.962;9.768;2023-07-09T13:33:21;2.88;;;1.95;;
38779;SDS011;29273;49.962;9.768;2023-07-09T13:35:48;2.38;;;1.83;;
38779;SDS011;29273;49.962;9.768;2023-07-09T13:38:17;2.78;;;2.17;;
38779;SDS011;29273;49.962;9.768;2023-07-09T13:40:46;3.10;;;1.85;;
38779;SDS011;29273;49.962;9.768;2023-07-09T13:43:14;3.33;;;1.90;;
38779;SDS011;29273;49.962;9.768;2023-07-09T13:45:47;8.27;;;1.70;;
38779;SDS011;29273;49.962;9.768;2023-07-09T13:48:15;3.20;;;2.13;;
38779;SDS011;29273;49.962;9.768;2023-07-09T13:50:43;4.22;;;1.95;;
38779;SDS011;29273;49.962;9.768;2023-07-09T13:53:14;3.00;;;2.10;;
38779;SDS011;29273;49.962;9.768;2023-07-09T13:55:43;2.03;;;1.63;;
38779;SDS011;29273;49.962;9.768;2023-07-09T13:58:11;3.15;;;2.13;;
38779;SDS011;29273;49.962;9.768;2023-07-09T14:00:39;2.20;;;1.80;;
38779;SDS011;29273;49.962;9.768;2023-07-09T14:03:39;2.40;;;2.20;;
38779;SDS011;29273;49.962;9.768;2023-07-09T14:05:58;4.80;;;2.20;;
38779;SDS011;29273;49.962;9.768;2023-07-09T14:08:23;2.38;;;1.90;;
38779;SDS011;29273;49.962;9.768;2023-07-09T14:10:49;3.05;;;1.88;;
38779;SDS011;29273;49.962;9.768;2023-07-09T14:13:21;2.05;;;1.85;;
38779;SDS011;29273;49.962;9.768;2023-07-09T14:15:48;1.70;;;1.60;;
38779;SDS011;29273;49.962;9.768;2023-07-09T14:18:15;3.15;;;1.90;;
38779;SDS011;29273;49.962;9.768;2023-07-09T14:20:42;1.90;;;1.63;;
38779;SDS011;29273;49.962;9.768;2023-07-09T14:23:10;2.38;;;1.95;;
38779;SDS011;29273;49.962;9.768;2023-07-09T14:25:36;2.97;;;1.75;;
38779;SDS011;29273;49.962;9.768;2023-07-09T14:28:04;2.10;;;1.90;;
38779;SDS011;29273;49.962;9.768;2023-07-09T14:30:33;2.67;;;1.98;;
38779;SDS011;29273;49.962;9.768;2023-07-09T14:32:59;3.08;;;1.95;;
38779;SDS011;29273;49.962;9.768;2023-07-09T14:35:25;2.53;;;1.83;;
38779;SDS011;29273;49.962;9.768;2023-07-09T14:37:52;2.33;;;2.00;;
38779;SDS011;29273;49.962;9.768;2023-07-09T14:40:19;2.25;;;1.77;;
38779;SDS011;29273;49.962;9.768;2023-07-09T14:42:46;2.55;;;2.15;;
38779;SDS011;29273;49.962;9.768;2023-07-09T14:45:16;2.15;;;1.83;;
38779;SDS011;29273;49.962;9.768;2023-07-09T14:47:49;3.67;;;2.17;;
38779;SDS011;29273;49.962;9.768;2023-07-09T14:50:16;2.55;;;2.00;;
38779;SDS011;29273;49.962;9.768;2023-07-09T14:52:44;2.47;;;2.28;;
38779;SDS011;29273;49.962;9.768;2023-07-09T14:55:14;1.95;;;1.75;;
38779;SDS011;29273;49.962;9.768;2023-07-09T14:57:41;2.55;;;2.20;;
38779;SDS011;29273;49.962;9.768;2023-07-09T15:00:06;2.80;;;2.45;;
38779;SDS011;29273;49.962;9.768;2023-07-09T15:02:38;3.20;;;2.38;;
38779;SDS011;29273;49.962;9.768;2023-07-09T15:05:10;3.15;;;2.25;;
38779;SDS011;29273;49.962;9.768;2023-07-09T15:07:39;2.35;;;1.75;;
38779;SDS011;29273;49.962;9.768;2023-07-09T15:10:04;2.00;;;1.80;;
38779;SDS011;29273;49.962;9.768;2023-07-09T15:12:33;1.92;;;1.77;;
38779;SDS011;29273;49.962;9.768;2023-07-09T15:15:11;1.95;;;1.83;;
38779;SDS011;29273;49.962;9.768;2023-07-09T15:17:37;2.35;;;2.13;;